Terminal Aerodrome Forecast
Issued by NWS

Home | Current Version | Previous Version | Text Only | Print | Product List | Glossary Off
Versions: 1 2 3 4 5 6 7 8 9 10 11 12 13

673
FTUS43 KTOP 211132
TAFFOE
TAF
KFOE 211132Z 2112/2212 09006KT 6SM -RA BKN040 OVC150
     FM211900 06008KT P6SM VCSH FEW030 OVC040=

USA.gov is the U.S. government's official web portal to all federal, state and local government web resources and services.